sensor_id;sensor_type;location;lat;lon;timestamp;temperature;humidity
2723;DHT22;1369;53.216;10.396;2022-12-11T00:01:43;-0.20;99.90
2723;DHT22;1369;53.216;10.396;2022-12-11T00:04:08;-0.10;99.90
2723;DHT22;1369;53.216;10.396;2022-12-11T00:06:34;-0.10;99.90
2723;DHT22;1369;53.216;10.396;2022-12-11T00:09:00;-0.10;99.90
2723;DHT22;1369;53.216;10.396;2022-12-11T00:11:25;0.00;99.90
2723;DHT22;1369;53.216;10.396;2022-12-11T00:13:51;0.00;99.90
2723;DHT22;1369;53.216;10.396;2022-12-11T00:16:16;0.00;99.90
2723;DHT22;1369;53.216;10.396;2022-12-11T00:18:42;-0.10;99.90
2723;DHT22;1369;53.216;10.396;2022-12-11T00:21:11;-0.10;99.90
2723;DHT22;1369;53.216;10.396;2022-12-11T00:23:38;-0.10;99.90
2723;DHT22;1369;53.216;10.396;2022-12-11T00:26:10;-0.20;99.90
2723;DHT22;1369;53.216;10.396;2022-12-11T00:28:36;-0.10;99.90
2723;DHT22;1369;53.216;10.396;2022-12-11T00:31:06;-0.10;99.90
2723;DHT22;1369;53.216;10.396;2022-12-11T00:33:32;-0.10;99.90
2723;DHT22;1369;53.216;10.396;2022-12-11T00:35:58;-0.10;99.90
2723;DHT22;1369;53.216;10.396;2022-12-11T00:38:23;-0.20;99.90
2723;DHT22;1369;53.216;10.396;2022-12-11T00:40:49;-0.20;99.90
2723;DHT22;1369;53.216;10.396;2022-12-11T00:43:15;-0.20;99.90
2723;DHT22;1369;53.216;10.396;2022-12-11T00:45:45;-0.30;99.90
2723;DHT22;1369;53.216;10.396;2022-12-11T00:48:12;-0.30;99.90
2723;DHT22;1369;53.216;10.396;2022-12-11T00:50:38;-0.30;99.90
2723;DHT22;1369;53.216;10.396;2022-12-11T00:53:04;-0.30;99.90
2723;DHT22;1369;53.216;10.396;2022-12-11T00:55:31;-0.30;99.90
2723;DHT22;1369;53.216;10.396;2022-12-11T00:58:00;-0.30;99.90
2723;DHT22;1369;53.216;10.396;2022-12-11T01:00:25;-0.40;99.90
2723;DHT22;1369;53.216;10.396;2022-12-11T01:02:51;-0.30;99.90
2723;DHT22;1369;53.216;10.396;2022-12-11T01:05:17;-0.40;99.90
2723;DHT22;1369;53.216;10.396;2022-12-11T01:07:42;-0.50;99.90
2723;DHT22;1369;53.216;10.396;2022-12-11T01:10:11;-0.40;99.90
2723;DHT22;1369;53.216;10.396;2022-12-11T01:12:49;-0.40;99.90
2723;DHT22;1369;53.216;10.396;2022-12-11T01:15:15;-0.50;99.90
2723;DHT22;1369;53.216;10.396;2022-12-11T01:17:42;-0.40;99.90
2723;DHT22;1369;53.216;10.396;2022-12-11T01:20:08;-0.40;99.90
2723;DHT22;1369;53.216;10.396;2022-12-11T01:22:33;-0.50;99.90
2723;DHT22;1369;53.216;10.396;2022-12-11T01:24:59;-0.40;99.90
2723;DHT22;1369;53.216;10.396;2022-12-11T01:27:24;-0.20;99.90
2723;DHT22;1369;53.216;10.396;2022-12-11T01:29:50;-0.20;99.90
2723;DHT22;1369;53.216;10.396;2022-12-11T01:32:15;-0.10;99.90
2723;DHT22;1369;53.216;10.396;2022-12-11T01:34:41;-0.10;99.90
2723;DHT22;1369;53.216;10.396;2022-12-11T01:37:07;-0.10;99.90
2723;DHT22;1369;53.216;10.396;2022-12-11T01:39:32;-0.10;99.90
2723;DHT22;1369;53.216;10.396;2022-12-11T01:41:59;-0.20;99.90
2723;DHT22;1369;53.216;10.396;2022-12-11T01:46:51;-0.30;99.90
2723;DHT22;1369;53.216;10.396;2022-12-11T01:49:18;-0.30;99.90
2723;DHT22;1369;53.216;10.396;2022-12-11T01:51:52;-0.40;99.90
2723;DHT22;1369;53.216;10.396;2022-12-11T01:54:21;-0.30;99.90
2723;DHT22;1369;53.216;10.396;2022-12-11T01:56:49;-0.30;99.90
2723;DHT22;1369;53.216;10.396;2022-12-11T01:59:18;-0.30;99.90
2723;DHT22;1369;53.216;10.396;2022-12-11T02:01:54;-0.30;99.90
2723;DHT22;1369;53.216;10.396;2022-12-11T02:04:21;-0.30;99.90
2723;DHT22;1369;53.216;10.396;2022-12-11T02:06:49;-0.40;99.90
2723;DHT22;1369;53.216;10.396;2022-12-11T02:09:19;-0.30;99.90
2723;DHT22;1369;53.216;10.396;2022-12-11T02:12:00;-0.30;99.90
2723;DHT22;1369;53.216;10.396;2022-12-11T02:20:30;-0.40;99.90
2723;DHT22;1369;53.216;10.396;2022-12-11T02:23:27;-0.30;99.90
2723;DHT22;1369;53.216;10.396;2022-12-11T02:26:11;-0.20;99.90
2723;DHT22;1369;53.216;10.396;2022-12-11T02:28:48;-0.20;99.90
2723;DHT22;1369;53.216;10.396;2022-12-11T02:34:17;-0.20;99.90
2723;DHT22;1369;53.216;10.396;2022-12-11T02:36:50;-0.20;99.90
2723;DHT22;1369;53.216;10.396;2022-12-11T02:39:17;-0.10;99.90
2723;DHT22;1369;53.216;10.396;2022-12-11T02:41:46;-0.20;99.90
2723;DHT22;1369;53.216;10.396;2022-12-11T02:44:14;-0.10;99.90
2723;DHT22;1369;53.216;10.396;2022-12-11T02:46:42;-0.10;99.90
2723;DHT22;1369;53.216;10.396;2022-12-11T02:49:10;-0.10;99.90
2723;DHT22;1369;53.216;10.396;2022-12-11T02:51:40;-0.20;99.90
2723;DHT22;1369;53.216;10.396;2022-12-11T02:54:10;-0.30;99.90
2723;DHT22;1369;53.216;10.396;2022-12-11T02:56:43;-0.30;99.90
2723;DHT22;1369;53.216;10.396;2022-12-11T02:59:18;-0.30;99.90
2723;DHT22;1369;53.216;10.396;2022-12-11T03:01:45;-0.20;99.90
2723;DHT22;1369;53.216;10.396;2022-12-11T03:04:10;-0.10;99.90
2723;DHT22;1369;53.216;10.396;2022-12-11T03:06:40;0.00;99.90
2723;DHT22;1369;53.216;10.396;2022-12-11T03:09:08;-0.10;99.90
2723;DHT22;1369;53.216;10.396;2022-12-11T03:11:34;-0.10;99.90
2723;DHT22;1369;53.216;10.396;2022-12-11T03:14:00;-0.10;99.90
2723;DHT22;1369;53.216;10.396;2022-12-11T03:16:36;-0.20;99.90
2723;DHT22;1369;53.216;10.396;2022-12-11T03:19:47;-0.20;99.90
2723;DHT22;1369;53.216;10.396;2022-12-11T03:22:40;-0.20;99.90
2723;DHT22;1369;53.216;10.396;2022-12-11T03:25:15;-0.30;99.90
2723;DHT22;1369;53.216;10.396;2022-12-11T03:30:18;-0.40;99.90
2723;DHT22;1369;53.216;10.396;2022-12-11T03:32:52;-0.40;99.90
2723;DHT22;1369;53.216;10.396;2022-12-11T03:35:25;-0.40;99.90
2723;DHT22;1369;53.216;10.396;2022-12-11T03:37:53;-0.40;99.90
2723;DHT22;1369;53.216;10.396;2022-12-11T03:40:21;-0.50;99.90
2723;DHT22;1369;53.216;10.396;2022-12-11T03:42:51;-0.50;99.90
2723;DHT22;1369;53.216;10.396;2022-12-11T03:45:19;-0.50;99.90
2723;DHT22;1369;53.216;10.396;2022-12-11T03:47:45;-0.50;99.90
2723;DHT22;1369;53.216;10.396;2022-12-11T03:50:12;-0.50;99.90
2723;DHT22;1369;53.216;10.396;2022-12-11T03:52:40;-0.50;99.90
2723;DHT22;1369;53.216;10.396;2022-12-11T03:55:08;-0.40;99.90
2723;DHT22;1369;53.216;10.396;2022-12-11T03:57:36;-0.40;99.90
2723;DHT22;1369;53.216;10.396;2022-12-11T04:00:08;-0.40;99.90
2723;DHT22;1369;53.216;10.396;2022-12-11T04:02:34;-0.30;99.90
2723;DHT22;1369;53.216;10.396;2022-12-11T04:04:59;-0.40;99.90
2723;DHT22;1369;53.216;10.396;2022-12-11T04:07:25;-0.40;99.90
2723;DHT22;1369;53.216;10.396;2022-12-11T04:09:51;-0.40;99.90
2723;DHT22;1369;53.216;10.396;2022-12-11T04:12:16;-0.50;99.90
2723;DHT22;1369;53.216;10.396;2022-12-11T04:14:42;-0.60;99.90
2723;DHT22;1369;53.216;10.396;2022-12-11T04:17:26;-0.50;99.90
2723;DHT22;1369;53.216;10.396;2022-12-11T04:20:11;-0.40;99.90
2723;DHT22;1369;53.216;10.396;2022-12-11T04:22:55;-0.50;99.90
2723;DHT22;1369;53.216;10.396;2022-12-11T04:25:39;-0.50;99.90
2723;DHT22;1369;53.216;10.396;2022-12-11T04:28:04;-0.50;99.90
2723;DHT22;1369;53.216;10.396;2022-12-11T04:30:30;-0.50;99.90
2723;DHT22;1369;53.216;10.396;2022-12-11T04:32:55;-0.60;99.90
2723;DHT22;1369;53.216;10.396;2022-12-11T04:35:21;-0.60;99.90
2723;DHT22;1369;53.216;10.396;2022-12-11T04:37:47;-0.60;99.90
2723;DHT22;1369;53.216;10.396;2022-12-11T04:40:15;-0.60;99.90
2723;DHT22;1369;53.216;10.396;2022-12-11T04:42:41;-0.70;99.90
2723;DHT22;1369;53.216;10.396;2022-12-11T04:45:07;-0.70;99.90
2723;DHT22;1369;53.216;10.396;2022-12-11T04:47:35;-0.70;99.90
2723;DHT22;1369;53.216;10.396;2022-12-11T04:50:01;-0.80;99.90
2723;DHT22;1369;53.216;10.396;2022-12-11T04:52:27;-0.80;99.90
2723;DHT22;1369;53.216;10.396;2022-12-11T04:54:52;-0.80;99.90
2723;DHT22;1369;53.216;10.396;2022-12-11T04:57:18;-0.80;99.90
2723;DHT22;1369;53.216;10.396;2022-12-11T04:59:45;-0.70;99.90
2723;DHT22;1369;53.216;10.396;2022-12-11T05:02:11;-0.70;99.90
2723;DHT22;1369;53.216;10.396;2022-12-11T05:04:36;-0.60;99.90
2723;DHT22;1369;53.216;10.396;2022-12-11T05:07:02;-0.60;99.90
2723;DHT22;1369;53.216;10.396;2022-12-11T05:09:28;-0.50;99.90
2723;DHT22;1369;53.216;10.396;2022-12-11T05:11:54;-0.50;99.90
2723;DHT22;1369;53.216;10.396;2022-12-11T05:14:19;-0.50;99.90
2723;DHT22;1369;53.216;10.396;2022-12-11T05:16:45;-0.60;99.90
2723;DHT22;1369;53.216;10.396;2022-12-11T05:19:11;-0.70;99.90
2723;DHT22;1369;53.216;10.396;2022-12-11T05:21:36;-0.80;99.90
2723;DHT22;1369;53.216;10.396;2022-12-11T05:24:02;-1.00;99.90
2723;DHT22;1369;53.216;10.396;2022-12-11T05:26:28;-1.10;99.90
2723;DHT22;1369;53.216;10.396;2022-12-11T05:28:54;-1.30;99.90
2723;DHT22;1369;53.216;10.396;2022-12-11T05:31:21;-1.30;99.90
2723;DHT22;1369;53.216;10.396;2022-12-11T05:33:49;-1.30;99.90
2723;DHT22;1369;53.216;10.396;2022-12-11T05:36:30;-1.30;99.90
2723;DHT22;1369;53.216;10.396;2022-12-11T05:38:57;-1.20;99.90
2723;DHT22;1369;53.216;10.396;2022-12-11T05:41:24;-1.30;99.90
2723;DHT22;1369;53.216;10.396;2022-12-11T05:43:50;-1.30;99.90
2723;DHT22;1369;53.216;10.396;2022-12-11T05:46:21;-1.40;99.90
2723;DHT22;1369;53.216;10.396;2022-12-11T05:48:49;-1.40;99.90
2723;DHT22;1369;53.216;10.396;2022-12-11T05:51:16;-1.50;99.90
2723;DHT22;1369;53.216;10.396;2022-12-11T05:53:43;-1.60;99.90
2723;DHT22;1369;53.216;10.396;2022-12-11T05:56:20;-1.70;99.90
2723;DHT22;1369;53.216;10.396;2022-12-11T05:58:47;-1.80;99.90
2723;DHT22;1369;53.216;10.396;2022-12-11T06:01:15;-2.00;99.90
2723;DHT22;1369;53.216;10.396;2022-12-11T06:03:42;-2.10;99.90
2723;DHT22;1369;53.216;10.396;2022-12-11T06:06:08;-2.20;99.90
2723;DHT22;1369;53.216;10.396;2022-12-11T06:08:33;-2.20;99.90
2723;DHT22;1369;53.216;10.396;2022-12-11T06:11:00;-2.30;99.90
2723;DHT22;1369;53.216;10.396;2022-12-11T06:13:25;-2.30;99.90
2723;DHT22;1369;53.216;10.396;2022-12-11T06:15:51;-2.40;99.90
2723;DHT22;1369;53.216;10.396;2022-12-11T06:18:17;-2.50;99.90
2723;DHT22;1369;53.216;10.396;2022-12-11T06:20:42;-2.60;99.90
2723;DHT22;1369;53.216;10.396;2022-12-11T06:23:08;-2.60;99.90
2723;DHT22;1369;53.216;10.396;2022-12-11T06:25:33;-2.60;99.90
2723;DHT22;1369;53.216;10.396;2022-12-11T06:27:59;-2.70;99.90
2723;DHT22;1369;53.216;10.396;2022-12-11T06:30:25;-2.80;99.90
2723;DHT22;1369;53.216;10.396;2022-12-11T06:32:50;-2.80;99.90
2723;DHT22;1369;53.216;10.396;2022-12-11T06:35:16;-2.90;99.90
2723;DHT22;1369;53.216;10.396;2022-12-11T06:37:41;-2.90;99.90
2723;DHT22;1369;53.216;10.396;2022-12-11T06:40:08;-2.80;99.90
2723;DHT22;1369;53.216;10.396;2022-12-11T06:42:34;-2.80;99.90
2723;DHT22;1369;53.216;10.396;2022-12-11T06:45:01;-2.90;99.90
2723;DHT22;1369;53.216;10.396;2022-12-11T06:47:30;-2.90;99.90
2723;DHT22;1369;53.216;10.396;2022-12-11T06:49:56;-2.90;99.90
2723;DHT22;1369;53.216;10.396;2022-12-11T06:52:23;-2.90;99.90
2723;DHT22;1369;53.216;10.396;2022-12-11T06:54:48;-3.00;99.90
2723;DHT22;1369;53.216;10.396;2022-12-11T06:57:14;-3.10;99.90
2723;DHT22;1369;53.216;10.396;2022-12-11T06:59:40;-3.10;99.90
2723;DHT22;1369;53.216;10.396;2022-12-11T07:02:06;-3.20;99.90
2723;DHT22;1369;53.216;10.396;2022-12-11T07:04:31;-3.30;99.90
2723;DHT22;1369;53.216;10.396;2022-12-11T07:06:57;-3.30;99.90
2723;DHT22;1369;53.216;10.396;2022-12-11T07:09:23;-3.30;99.90
2723;DHT22;1369;53.216;10.396;2022-12-11T07:11:49;-3.40;99.90
2723;DHT22;1369;53.216;10.396;2022-12-11T07:14:15;-3.40;99.90
2723;DHT22;1369;53.216;10.396;2022-12-11T07:16:40;-3.50;99.90
2723;DHT22;1369;53.216;10.396;2022-12-11T07:19:06;-3.40;99.90
2723;DHT22;1369;53.216;10.396;2022-12-11T07:21:32;-3.50;99.90
2723;DHT22;1369;53.216;10.396;2022-12-11T07:23:57;-3.50;99.90
2723;DHT22;1369;53.216;10.396;2022-12-11T07:26:23;-3.50;99.90
2723;DHT22;1369;53.216;10.396;2022-12-11T07:28:49;-3.50;99.90
2723;DHT22;1369;53.216;10.396;2022-12-11T07:31:22;-3.40;99.90
2723;DHT22;1369;53.216;10.396;2022-12-11T07:33:56;-3.40;99.90
2723;DHT22;1369;53.216;10.396;2022-12-11T07:36:22;-3.40;99.90
2723;DHT22;1369;53.216;10.396;2022-12-11T07:38:48;-3.50;99.90
2723;DHT22;1369;53.216;10.396;2022-12-11T07:41:14;-3.50;99.90
2723;DHT22;1369;53.216;10.396;2022-12-11T07:43:41;-3.40;99.90
2723;DHT22;1369;53.216;10.396;2022-12-11T07:46:12;-3.50;99.90
2723;DHT22;1369;53.216;10.396;2022-12-11T07:48:40;-3.60;99.90
2723;DHT22;1369;53.216;10.396;2022-12-11T07:51:14;-3.60;99.90
2723;DHT22;1369;53.216;10.396;2022-12-11T07:53:41;-3.70;99.90
2723;DHT22;1369;53.216;10.396;2022-12-11T07:56:07;-3.50;99.90
2723;DHT22;1369;53.216;10.396;2022-12-11T07:58:32;-3.50;99.90
2723;DHT22;1369;53.216;10.396;2022-12-11T08:00:58;-3.50;99.90
2723;DHT22;1369;53.216;10.396;2022-12-11T08:03:24;-3.60;99.90
2723;DHT22;1369;53.216;10.396;2022-12-11T08:05:51;-3.50;99.90
2723;DHT22;1369;53.216;10.396;2022-12-11T08:08:18;-3.40;99.90
2723;DHT22;1369;53.216;10.396;2022-12-11T08:10:43;-3.50;99.90
2723;DHT22;1369;53.216;10.396;2022-12-11T08:13:09;-3.40;99.90
2723;DHT22;1369;53.216;10.396;2022-12-11T08:15:35;-3.50;99.90
2723;DHT22;1369;53.216;10.396;2022-12-11T08:18:01;-3.50;99.90
2723;DHT22;1369;53.216;10.396;2022-12-11T08:20:26;-3.40;99.90
2723;DHT22;1369;53.216;10.396;2022-12-11T08:22:52;-3.30;99.90
2723;DHT22;1369;53.216;10.396;2022-12-11T08:25:17;-3.40;99.90
2723;DHT22;1369;53.216;10.396;2022-12-11T08:27:43;-3.40;99.90
2723;DHT22;1369;53.216;10.396;2022-12-11T08:30:09;-3.40;99.90
2723;DHT22;1369;53.216;10.396;2022-12-11T08:32:35;-3.30;99.90
2723;DHT22;1369;53.216;10.396;2022-12-11T08:35:00;-3.30;99.90
2723;DHT22;1369;53.216;10.396;2022-12-11T08:37:26;-3.30;99.90
2723;DHT22;1369;53.216;10.396;2022-12-11T08:39:52;-3.30;99.90
2723;DHT22;1369;53.216;10.396;2022-12-11T08:42:17;-3.30;99.90
2723;DHT22;1369;53.216;10.396;2022-12-11T08:44:43;-3.30;99.90
2723;DHT22;1369;53.216;10.396;2022-12-11T08:47:08;-3.30;99.90
2723;DHT22;1369;53.216;10.396;2022-12-11T08:49:36;-3.30;99.90
2723;DHT22;1369;53.216;10.396;2022-12-11T08:52:03;-3.20;99.90
2723;DHT22;1369;53.216;10.396;2022-12-11T08:54:29;-3.20;99.90
2723;DHT22;1369;53.216;10.396;2022-12-11T08:56:54;-3.10;99.90
2723;DHT22;1369;53.216;10.396;2022-12-11T08:59:20;-3.10;99.90
2723;DHT22;1369;53.216;10.396;2022-12-11T09:01:45;-3.00;99.90
2723;DHT22;1369;53.216;10.396;2022-12-11T09:04:10;-3.00;99.90
2723;DHT22;1369;53.216;10.396;2022-12-11T09:06:36;-3.00;99.90
2723;DHT22;1369;53.216;10.396;2022-12-11T09:09:02;-2.90;99.90
2723;DHT22;1369;53.216;10.396;2022-12-11T09:11:31;-2.90;99.90
2723;DHT22;1369;53.216;10.396;2022-12-11T09:13:56;-2.80;99.90
2723;DHT22;1369;53.216;10.396;2022-12-11T09:16:25;-2.70;99.90
2723;DHT22;1369;53.216;10.396;2022-12-11T09:18:52;-2.70;99.90
2723;DHT22;1369;53.216;10.396;2022-12-11T09:21:20;-2.70;99.90
2723;DHT22;1369;53.216;10.396;2022-12-11T09:23:46;-2.70;99.90
2723;DHT22;1369;53.216;10.396;2022-12-11T09:26:15;-2.50;99.90
2723;DHT22;1369;53.216;10.396;2022-12-11T09:28:41;-2.50;99.90
2723;DHT22;1369;53.216;10.396;2022-12-11T09:31:20;-2.40;99.90
2723;DHT22;1369;53.216;10.396;2022-12-11T09:33:48;-2.50;99.90
2723;DHT22;1369;53.216;10.396;2022-12-11T09:36:14;-2.50;99.90
2723;DHT22;1369;53.216;10.396;2022-12-11T09:38:40;-2.40;99.90
2723;DHT22;1369;53.216;10.396;2022-12-11T09:46:16;-2.10;99.90
2723;DHT22;1369;53.216;10.396;2022-12-11T09:48:45;-2.10;99.90
2723;DHT22;1369;53.216;10.396;2022-12-11T09:51:33;-2.00;99.90
2723;DHT22;1369;53.216;10.396;2022-12-11T09:54:01;-1.90;99.90
2723;DHT22;1369;53.216;10.396;2022-12-11T09:56:35;-1.90;99.90
2723;DHT22;1369;53.216;10.396;2022-12-11T10:01:58;-1.60;99.90
2723;DHT22;1369;53.216;10.396;2022-12-11T10:04:57;-1.50;99.90
2723;DHT22;1369;53.216;10.396;2022-12-11T10:07:48;-1.40;99.90
2723;DHT22;1369;53.216;10.396;2022-12-11T10:10:40;-1.20;99.90
2723;DHT22;1369;53.216;10.396;2022-12-11T10:13:26;-1.10;99.90
2723;DHT22;1369;53.216;10.396;2022-12-11T10:16:24;-1.10;99.90
2723;DHT22;1369;53.216;10.396;2022-12-11T10:18:52;-1.00;99.90
2723;DHT22;1369;53.216;10.396;2022-12-11T10:21:18;-0.80;99.90
2723;DHT22;1369;53.216;10.396;2022-12-11T10:23:53;-0.80;99.90
2723;DHT22;1369;53.216;10.396;2022-12-11T10:26:21;-0.80;99.90
2723;DHT22;1369;53.216;10.396;2022-12-11T10:28:47;-0.80;99.90
2723;DHT22;1369;53.216;10.396;2022-12-11T10:31:17;-0.80;99.90
2723;DHT22;1369;53.216;10.396;2022-12-11T10:34:00;-0.70;99.90
2723;DHT22;1369;53.216;10.396;2022-12-11T10:36:30;-0.70;99.90
2723;DHT22;1369;53.216;10.396;2022-12-11T10:38:56;-0.70;99.90
2723;DHT22;1369;53.216;10.396;2022-12-11T10:41:26;-0.60;99.90
2723;DHT22;1369;53.216;10.396;2022-12-11T10:43:57;-0.60;99.90
2723;DHT22;1369;53.216;10.396;2022-12-11T10:46:27;-0.60;99.90
2723;DHT22;1369;53.216;10.396;2022-12-11T10:48:55;-0.60;99.90
2723;DHT22;1369;53.216;10.396;2022-12-11T10:51:24;-0.60;99.90
2723;DHT22;1369;53.216;10.396;2022-12-11T10:53:56;-0.50;99.90
2723;DHT22;1369;53.216;10.396;2022-12-11T10:56:27;-0.50;99.90
2723;DHT22;1369;53.216;10.396;2022-12-11T10:58:54;-0.40;99.90
2723;DHT22;1369;53.216;10.396;2022-12-11T11:01:22;-0.30;99.90
2723;DHT22;1369;53.216;10.396;2022-12-11T11:04:14;-0.20;99.90
2723;DHT22;1369;53.216;10.396;2022-12-11T11:06:43;-0.20;99.90
2723;DHT22;1369;53.216;10.396;2022-12-11T11:09:33;-0.10;99.90
2723;DHT22;1369;53.216;10.396;2022-12-11T11:12:00;-0.10;99.90
2723;DHT22;1369;53.216;10.396;2022-12-11T11:14:25;0.00;99.90
2723;DHT22;1369;53.216;10.396;2022-12-11T11:16:55;0.00;99.90
2723;DHT22;1369;53.216;10.396;2022-12-11T11:19:30;0.00;99.90
2723;DHT22;1369;53.216;10.396;2022-12-11T11:22:01;0.10;99.90
2723;DHT22;1369;53.216;10.396;2022-12-11T11:24:37;0.00;99.90
2723;DHT22;1369;53.216;10.396;2022-12-11T11:29:46;0.10;99.90
2723;DHT22;1369;53.216;10.396;2022-12-11T11:32:22;0.00;99.90
2723;DHT22;1369;53.216;10.396;2022-12-11T11:34:48;-0.10;99.90
2723;DHT22;1369;53.216;10.396;2022-12-11T11:37:33;-0.10;99.90
2723;DHT22;1369;53.216;10.396;2022-12-11T11:40:18;-0.10;99.90
2723;DHT22;1369;53.216;10.396;2022-12-11T11:46:07;-0.20;99.90
2723;DHT22;1369;53.216;10.396;2022-12-11T11:48:56;-0.20;99.90
2723;DHT22;1369;53.216;10.396;2022-12-11T11:51:39;-0.30;99.90
2723;DHT22;1369;53.216;10.396;2022-12-11T11:54:23;-0.20;99.90
2723;DHT22;1369;53.216;10.396;2022-12-11T11:56:52;-0.20;99.90
2723;DHT22;1369;53.216;10.396;2022-12-11T11:59:25;-0.20;99.90
2723;DHT22;1369;53.216;10.396;2022-12-11T12:01:55;-0.20;99.90
2723;DHT22;1369;53.216;10.396;2022-12-11T12:04:21;-0.10;99.90
2723;DHT22;1369;53.216;10.396;2022-12-11T12:07:06;-0.20;99.90
2723;DHT22;1369;53.216;10.396;2022-12-11T12:09:52;-0.20;99.90
2723;DHT22;1369;53.216;10.396;2022-12-11T12:18:11;-0.10;99.90
2723;DHT22;1369;53.216;10.396;2022-12-11T12:20:50;-0.20;99.90
2723;DHT22;1369;53.216;10.396;2022-12-11T12:23:37;-0.20;99.90
2723;DHT22;1369;53.216;10.396;2022-12-11T12:26:16;-0.10;99.90
2723;DHT22;1369;53.216;10.396;2022-12-11T12:37:13;0.40;99.90
2723;DHT22;1369;53.216;10.396;2022-12-11T12:42:25;0.70;99.90
2723;DHT22;1369;53.216;10.396;2022-12-11T12:47:43;0.90;99.90
2723;DHT22;1369;53.216;10.396;2022-12-11T12:50:14;1.00;99.90
2723;DHT22;1369;53.216;10.396;2022-12-11T12:52:41;1.10;99.90
2723;DHT22;1369;53.216;10.396;2022-12-11T12:57:44;1.10;99.90
2723;DHT22;1369;53.216;10.396;2022-12-11T13:00:10;1.20;99.90
2723;DHT22;1369;53.216;10.396;2022-12-11T13:02:57;1.20;99.90
2723;DHT22;1369;53.216;10.396;2022-12-11T13:05:29;1.30;99.90
2723;DHT22;1369;53.216;10.396;2022-12-11T13:07:58;1.30;99.90
2723;DHT22;1369;53.216;10.396;2022-12-11T13:10:31;1.30;99.90
2723;DHT22;1369;53.216;10.396;2022-12-11T13:12:59;1.20;99.90
2723;DHT22;1369;53.216;10.396;2022-12-11T13:15:28;1.20;99.90
2723;DHT22;1369;53.216;10.396;2022-12-11T13:17:54;1.20;99.90
2723;DHT22;1369;53.216;10.396;2022-12-11T13:20:22;1.10;99.90
2723;DHT22;1369;53.216;10.396;2022-12-11T13:23:09;1.10;99.90
2723;DHT22;1369;53.216;10.396;2022-12-11T13:25:56;1.10;99.90
2723;DHT22;1369;53.216;10.396;2022-12-11T13:33:42;1.00;99.90
2723;DHT22;1369;53.216;10.396;2022-12-11T13:38:36;1.00;99.90
2723;DHT22;1369;53.216;10.396;2022-12-11T13:41:09;1.00;99.90
2723;DHT22;1369;53.216;10.396;2022-12-11T13:43:35;1.00;99.90
2723;DHT22;1369;53.216;10.396;2022-12-11T13:46:04;1.00;99.90
2723;DHT22;1369;53.216;10.396;2022-12-11T13:48:37;1.10;99.90
2723;DHT22;1369;53.216;10.396;2022-12-11T13:51:04;1.10;99.90
2723;DHT22;1369;53.216;10.396;2022-12-11T13:53:30;1.10;99.90
2723;DHT22;1369;53.216;10.396;2022-12-11T13:56:06;1.00;99.90
2723;DHT22;1369;53.216;10.396;2022-12-11T13:58:39;1.00;99.90
2723;DHT22;1369;53.216;10.396;2022-12-11T14:01:15;1.00;99.90
2723;DHT22;1369;53.216;10.396;2022-12-11T14:03:56;0.90;99.90
2723;DHT22;1369;53.216;10.396;2022-12-11T14:06:23;0.90;99.90
2723;DHT22;1369;53.216;10.396;2022-12-11T14:08:51;0.90;99.90
2723;DHT22;1369;53.216;10.396;2022-12-11T14:11:23;0.90;99.90
2723;DHT22;1369;53.216;10.396;2022-12-11T14:13:53;0.90;99.90
2723;DHT22;1369;53.216;10.396;2022-12-11T14:16:21;0.80;99.90
2723;DHT22;1369;53.216;10.396;2022-12-11T14:18:49;0.50;99.90
2723;DHT22;1369;53.216;10.396;2022-12-11T14:21:21;0.40;99.90
2723;DHT22;1369;53.216;10.396;2022-12-11T14:23:55;0.30;99.90
2723;DHT22;1369;53.216;10.396;2022-12-11T14:26:25;0.40;99.90
2723;DHT22;1369;53.216;10.396;2022-12-11T14:28:52;0.30;99.90
2723;DHT22;1369;53.216;10.396;2022-12-11T14:31:26;0.40;99.90
2723;DHT22;1369;53.216;10.396;2022-12-11T14:33:57;0.40;99.90
2723;DHT22;1369;53.216;10.396;2022-12-11T14:36:24;0.40;99.90
2723;DHT22;1369;53.216;10.396;2022-12-11T14:39:09;0.50;99.90
2723;DHT22;1369;53.216;10.396;2022-12-11T14:41:44;0.50;99.90
2723;DHT22;1369;53.216;10.396;2022-12-11T14:44:14;0.50;99.90
2723;DHT22;1369;53.216;10.396;2022-12-11T14:47:02;0.60;99.90
2723;DHT22;1369;53.216;10.396;2022-12-11T14:52:18;0.60;99.90
2723;DHT22;1369;53.216;10.396;2022-12-11T14:54:49;0.60;99.90
2723;DHT22;1369;53.216;10.396;2022-12-11T14:57:20;0.60;99.90
2723;DHT22;1369;53.216;10.396;2022-12-11T14:59:49;0.60;99.90
2723;DHT22;1369;53.216;10.396;2022-12-11T15:02:31;0.50;99.90
2723;DHT22;1369;53.216;10.396;2022-12-11T15:05:09;0.50;99.90
2723;DHT22;1369;53.216;10.396;2022-12-11T15:07:35;0.50;99.90
2723;DHT22;1369;53.216;10.396;2022-12-11T15:10:02;0.50;99.90
2723;DHT22;1369;53.216;10.396;2022-12-11T15:12:28;0.50;99.90
2723;DHT22;1369;53.216;10.396;2022-12-11T15:14:56;0.50;99.90
2723;DHT22;1369;53.216;10.396;2022-12-11T15:17:24;0.50;99.90
2723;DHT22;1369;53.216;10.396;2022-12-11T15:19:59;0.40;99.90
2723;DHT22;1369;53.216;10.396;2022-12-11T15:22:29;0.40;99.90
2723;DHT22;1369;53.216;10.396;2022-12-11T15:24:55;0.40;99.90
2723;DHT22;1369;53.216;10.396;2022-12-11T15:27:37;0.40;99.90
2723;DHT22;1369;53.216;10.396;2022-12-11T15:32:46;0.30;99.90
2723;DHT22;1369;53.216;10.396;2022-12-11T15:35:25;0.30;99.90
2723;DHT22;1369;53.216;10.396;2022-12-11T15:37:56;0.30;99.90
2723;DHT22;1369;53.216;10.396;2022-12-11T15:40:22;0.30;99.90
2723;DHT22;1369;53.216;10.396;2022-12-11T15:42:49;0.20;99.90
2723;DHT22;1369;53.216;10.396;2022-12-11T15:45:17;0.30;99.90
2723;DHT22;1369;53.216;10.396;2022-12-11T15:47:44;0.30;99.90
2723;DHT22;1369;53.216;10.396;2022-12-11T15:50:30;0.30;99.90
2723;DHT22;1369;53.216;10.396;2022-12-11T15:52:56;0.30;99.90
2723;DHT22;1369;53.216;10.396;2022-12-11T15:55:25;0.20;99.90
2723;DHT22;1369;53.216;10.396;2022-12-11T15:57:57;0.20;99.90
2723;DHT22;1369;53.216;10.396;2022-12-11T16:00:23;0.10;99.90
2723;DHT22;1369;53.216;10.396;2022-12-11T16:02:50;0.10;99.90
2723;DHT22;1369;53.216;10.396;2022-12-11T16:05:16;0.20;99.90
2723;DHT22;1369;53.216;10.396;2022-12-11T16:07:41;0.20;99.90
2723;DHT22;1369;53.216;10.396;2022-12-11T16:10:16;0.20;99.90
2723;DHT22;1369;53.216;10.396;2022-12-11T16:12:42;0.20;99.90
2723;DHT22;1369;53.216;10.396;2022-12-11T16:15:09;0.30;99.90
2723;DHT22;1369;53.216;10.396;2022-12-11T16:17:34;0.30;99.90
2723;DHT22;1369;53.216;10.396;2022-12-11T16:20:00;0.30;99.90
2723;DHT22;1369;53.216;10.396;2022-12-11T16:22:25;0.30;99.90
2723;DHT22;1369;53.216;10.396;2022-12-11T16:24:54;0.30;99.90
2723;DHT22;1369;53.216;10.396;2022-12-11T16:27:20;0.30;99.90
2723;DHT22;1369;53.216;10.396;2022-12-11T16:29:46;0.30;99.90
2723;DHT22;1369;53.216;10.396;2022-12-11T16:32:12;0.30;99.90
2723;DHT22;1369;53.216;10.396;2022-12-11T16:34:37;0.20;99.90
2723;DHT22;1369;53.216;10.396;2022-12-11T16:37:05;0.10;99.90
2723;DHT22;1369;53.216;10.396;2022-12-11T16:39:31;0.00;99.90
2723;DHT22;1369;53.216;10.396;2022-12-11T16:41:57;0.10;99.90
2723;DHT22;1369;53.216;10.396;2022-12-11T16:44:24;0.00;99.90
2723;DHT22;1369;53.216;10.396;2022-12-11T16:46:50;0.10;99.90
2723;DHT22;1369;53.216;10.396;2022-12-11T16:49:16;0.10;99.90
2723;DHT22;1369;53.216;10.396;2022-12-11T16:51:42;0.20;99.90
2723;DHT22;1369;53.216;10.396;2022-12-11T16:54:08;0.20;99.90
2723;DHT22;1369;53.216;10.396;2022-12-11T16:56:34;0.20;99.90
2723;DHT22;1369;53.216;10.396;2022-12-11T16:59:00;0.20;99.90
2723;DHT22;1369;53.216;10.396;2022-12-11T17:01:26;0.20;99.90
2723;DHT22;1369;53.216;10.396;2022-12-11T17:03:52;0.20;99.90
2723;DHT22;1369;53.216;10.396;2022-12-11T17:06:17;0.20;99.90
2723;DHT22;1369;53.216;10.396;2022-12-11T17:08:43;0.30;99.90